sensor_id;sensor_type;location;lat;lon;timestamp;pressure;altitude;pressure_sealevel;temperature;humidity
49455;BME280;69710;64.656;21.218;2023-08-12T00:02:01;101718.81;;;14.41;100.00
49455;BME280;69710;64.656;21.218;2023-08-12T00:04:29;101718.45;;;14.48;100.00
49455;BME280;69710;64.656;21.218;2023-08-12T00:06:56;101714.54;;;14.72;100.00
49455;BME280;69710;64.656;21.218;2023-08-12T00:09:24;101716.59;;;14.73;100.00
49455;BME280;69710;64.656;21.218;2023-08-12T00:11:51;101712.19;;;14.31;100.00
49455;BME280;69710;64.656;21.218;2023-08-12T00:14:19;101715.13;;;14.21;100.00
49455;BME280;69710;64.656;21.218;2023-08-12T00:16:47;101717.66;;;14.27;100.00
49455;BME280;69710;64.656;21.218;2023-08-12T00:19:14;101723.64;;;14.50;100.00
49455;BME280;69710;64.656;21.218;2023-08-12T00:21:41;101716.61;;;13.90;100.00
49455;BME280;69710;64.656;21.218;2023-08-12T00:24:09;101711.97;;;14.05;100.00
49455;BME280;69710;64.656;21.218;2023-08-12T00:26:37;101709.98;;;14.98;100.00
49455;BME280;69710;64.656;21.218;2023-08-12T00:29:04;101703.86;;;14.48;100.00
49455;BME280;69710;64.656;21.218;2023-08-12T00:31:31;101704.44;;;14.37;100.00
49455;BME280;69710;64.656;21.218;2023-08-12T00:34:00;101704.52;;;14.29;100.00
49455;BME280;69710;64.656;21.218;2023-08-12T00:36:28;101708.89;;;14.09;100.00
49455;BME280;69710;64.656;21.218;2023-08-12T00:38:55;101707.87;;;14.10;100.00
49455;BME280;69710;64.656;21.218;2023-08-12T00:41:22;101704.52;;;13.89;100.00
49455;BME280;69710;64.656;21.218;2023-08-12T00:43:50;101704.73;;;14.05;100.00
49455;BME280;69710;64.656;21.218;2023-08-12T00:46:18;101702.90;;;14.07;100.00
49455;BME280;69710;64.656;21.218;2023-08-12T00:48:46;101700.41;;;13.17;100.00
49455;BME280;69710;64.656;21.218;2023-08-12T00:51:16;101697.18;;;14.17;100.00
49455;BME280;69710;64.656;21.218;2023-08-12T00:53:46;101685.42;;;13.82;100.00
49455;BME280;69710;64.656;21.218;2023-08-12T00:56:13;101685.11;;;13.98;100.00
49455;BME280;69710;64.656;21.218;2023-08-12T00:58:41;101680.84;;;13.78;100.00
49455;BME280;69710;64.656;21.218;2023-08-12T01:01:11;101681.03;;;13.71;100.00
49455;BME280;69710;64.656;21.218;2023-08-12T01:03:39;101681.81;;;13.75;100.00
49455;BME280;69710;64.656;21.218;2023-08-12T01:06:07;101680.60;;;13.62;100.00
49455;BME280;69710;64.656;21.218;2023-08-12T01:08:36;101674.42;;;13.87;100.00
49455;BME280;69710;64.656;21.218;2023-08-12T01:11:08;101673.43;;;12.96;100.00
49455;BME280;69710;64.656;21.218;2023-08-12T01:13:44;101677.15;;;13.52;100.00
49455;BME280;69710;64.656;21.218;2023-08-12T01:16:16;101676.70;;;13.78;100.00
49455;BME280;69710;64.656;21.218;2023-08-12T01:18:45;101678.42;;;13.54;100.00
49455;BME280;69710;64.656;21.218;2023-08-12T01:21:16;101674.48;;;13.53;100.00
49455;BME280;69710;64.656;21.218;2023-08-12T01:23:45;101668.90;;;13.78;100.00
49455;BME280;69710;64.656;21.218;2023-08-12T01:26:13;101669.62;;;13.88;100.00
49455;BME280;69710;64.656;21.218;2023-08-12T01:28:41;101669.79;;;13.41;100.00
49455;BME280;69710;64.656;21.218;2023-08-12T01:31:12;101665.97;;;13.60;100.00
49455;BME280;69710;64.656;21.218;2023-08-12T01:33:49;101660.96;;;13.25;100.00
49455;BME280;69710;64.656;21.218;2023-08-12T01:36:19;101659.67;;;13.81;100.00
49455;BME280;69710;64.656;21.218;2023-08-12T01:38:49;101659.35;;;13.29;100.00
49455;BME280;69710;64.656;21.218;2023-08-12T01:41:21;101661.84;;;13.44;100.00
49455;BME280;69710;64.656;21.218;2023-08-12T01:43:50;101664.07;;;13.57;100.00
49455;BME280;69710;64.656;21.218;2023-08-12T01:46:18;101662.23;;;13.69;100.00
49455;BME280;69710;64.656;21.218;2023-08-12T01:48:46;101657.28;;;13.82;100.00
49455;BME280;69710;64.656;21.218;2023-08-12T01:51:14;101659.09;;;13.41;100.00
49455;BME280;69710;64.656;21.218;2023-08-12T01:53:42;101659.17;;;13.65;100.00
49455;BME280;69710;64.656;21.218;2023-08-12T01:56:10;101654.14;;;13.60;100.00
49455;BME280;69710;64.656;21.218;2023-08-12T01:58:38;101646.84;;;13.09;100.00
49455;BME280;69710;64.656;21.218;2023-08-12T02:01:05;101644.71;;;13.95;100.00
49455;BME280;69710;64.656;21.218;2023-08-12T02:03:32;101645.80;;;13.61;100.00
49455;BME280;69710;64.656;21.218;2023-08-12T02:05:59;101642.56;;;13.77;100.00
49455;BME280;69710;64.656;21.218;2023-08-12T02:08:27;101641.03;;;13.93;100.00
49455;BME280;69710;64.656;21.218;2023-08-12T02:10:56;101633.52;;;13.74;100.00
49455;BME280;69710;64.656;21.218;2023-08-12T02:13:24;101630.18;;;13.68;100.00
49455;BME280;69710;64.656;21.218;2023-08-12T02:15:52;101630.77;;;13.60;100.00
49455;BME280;69710;64.656;21.218;2023-08-12T02:18:20;101627.06;;;13.77;100.00
49455;BME280;69710;64.656;21.218;2023-08-12T02:20:47;101622.87;;;13.39;100.00
49455;BME280;69710;64.656;21.218;2023-08-12T02:23:15;101619.08;;;13.49;100.00
49455;BME280;69710;64.656;21.218;2023-08-12T02:25:43;101616.44;;;13.65;100.00
49455;BME280;69710;64.656;21.218;2023-08-12T02:28:11;101610.51;;;13.10;100.00
49455;BME280;69710;64.656;21.218;2023-08-12T02:30:41;101610.09;;;13.58;100.00
49455;BME280;69710;64.656;21.218;2023-08-12T02:33:09;101611.40;;;13.82;100.00
49455;BME280;69710;64.656;21.218;2023-08-12T02:35:37;101608.46;;;13.47;100.00
49455;BME280;69710;64.656;21.218;2023-08-12T02:38:05;101609.54;;;13.63;100.00
49455;BME280;69710;64.656;21.218;2023-08-12T02:40:33;101607.53;;;13.80;100.00
49455;BME280;69710;64.656;21.218;2023-08-12T02:43:01;101605.71;;;13.67;100.00
49455;BME280;69710;64.656;21.218;2023-08-12T02:45:29;101606.62;;;13.80;100.00
49455;BME280;69710;64.656;21.218;2023-08-12T02:47:57;101605.47;;;13.78;100.00
49455;BME280;69710;64.656;21.218;2023-08-12T02:50:26;101602.36;;;13.91;100.00
49455;BME280;69710;64.656;21.218;2023-08-12T02:52:53;101601.70;;;13.55;100.00
49455;BME280;69710;64.656;21.218;2023-08-12T02:55:21;101599.66;;;13.75;100.00
49455;BME280;69710;64.656;21.218;2023-08-12T02:57:48;101599.17;;;13.80;100.00
49455;BME280;69710;64.656;21.218;2023-08-12T03:00:16;101597.19;;;14.03;100.00
49455;BME280;69710;64.656;21.218;2023-08-12T03:02:44;101593.62;;;13.70;100.00
49455;BME280;69710;64.656;21.218;2023-08-12T03:05:12;101594.52;;;13.63;100.00
49455;BME280;69710;64.656;21.218;2023-08-12T03:07:40;101595.08;;;13.71;100.00
49455;BME280;69710;64.656;21.218;2023-08-12T03:10:09;101591.94;;;14.22;100.00
49455;BME280;69710;64.656;21.218;2023-08-12T03:12:37;101588.53;;;13.96;100.00
49455;BME280;69710;64.656;21.218;2023-08-12T03:15:06;101586.33;;;13.77;100.00
49455;BME280;69710;64.656;21.218;2023-08-12T03:17:33;101584.83;;;13.72;100.00
49455;BME280;69710;64.656;21.218;2023-08-12T03:20:01;101585.63;;;13.87;100.00
49455;BME280;69710;64.656;21.218;2023-08-12T03:22:30;101582.61;;;13.83;100.00
49455;BME280;69710;64.656;21.218;2023-08-12T03:24:58;101582.45;;;14.03;100.00
49455;BME280;69710;64.656;21.218;2023-08-12T03:27:26;101581.34;;;14.10;100.00
49455;BME280;69710;64.656;21.218;2023-08-12T03:29:53;101583.35;;;14.17;100.00
49455;BME280;69710;64.656;21.218;2023-08-12T03:32:20;101585.69;;;14.12;100.00
49455;BME280;69710;64.656;21.218;2023-08-12T03:34:47;101581.83;;;13.96;100.00
49455;BME280;69710;64.656;21.218;2023-08-12T03:37:15;101582.37;;;14.74;100.00
49455;BME280;69710;64.656;21.218;2023-08-12T03:39:43;101580.77;;;14.19;100.00
49455;BME280;69710;64.656;21.218;2023-08-12T03:42:10;101579.20;;;14.32;100.00
49455;BME280;69710;64.656;21.218;2023-08-12T03:44:38;101581.02;;;14.09;100.00
49455;BME280;69710;64.656;21.218;2023-08-12T03:47:06;101585.00;;;14.09;100.00
49455;BME280;69710;64.656;21.218;2023-08-12T03:49:34;101581.10;;;14.75;100.00
49455;BME280;69710;64.656;21.218;2023-08-12T03:52:02;101576.92;;;14.54;100.00
49455;BME280;69710;64.656;21.218;2023-08-12T03:54:29;101574.63;;;14.87;100.00
49455;BME280;69710;64.656;21.218;2023-08-12T03:56:57;101573.07;;;14.45;100.00
49455;BME280;69710;64.656;21.218;2023-08-12T03:59:25;101570.04;;;14.71;100.00
49455;BME280;69710;64.656;21.218;2023-08-12T04:01:53;101570.61;;;14.72;100.00
49455;BME280;69710;64.656;21.218;2023-08-12T04:04:21;101569.98;;;15.14;100.00
49455;BME280;69710;64.656;21.218;2023-08-12T04:06:49;101566.29;;;15.14;100.00
49455;BME280;69710;64.656;21.218;2023-08-12T04:09:17;101567.72;;;14.64;100.00
49455;BME280;69710;64.656;21.218;2023-08-12T04:11:45;101566.65;;;14.70;100.00
49455;BME280;69710;64.656;21.218;2023-08-12T04:14:14;101565.81;;;14.50;100.00
49455;BME280;69710;64.656;21.218;2023-08-12T04:16:42;101563.10;;;14.50;100.00
49455;BME280;69710;64.656;21.218;2023-08-12T04:19:10;101562.85;;;14.55;100.00
49455;BME280;69710;64.656;21.218;2023-08-12T04:21:39;101560.98;;;14.74;100.00
49455;BME280;69710;64.656;21.218;2023-08-12T04:24:08;101559.30;;;14.79;100.00
49455;BME280;69710;64.656;21.218;2023-08-12T04:26:36;101558.06;;;14.51;100.00
49455;BME280;69710;64.656;21.218;2023-08-12T04:29:03;101554.70;;;15.01;100.00
49455;BME280;69710;64.656;21.218;2023-08-12T04:31:31;101551.73;;;14.37;100.00
49455;BME280;69710;64.656;21.218;2023-08-12T04:33:59;101551.65;;;14.79;100.00
49455;BME280;69710;64.656;21.218;2023-08-12T04:36:26;101547.42;;;14.34;100.00
49455;BME280;69710;64.656;21.218;2023-08-12T04:38:54;101550.84;;;14.87;100.00
49455;BME280;69710;64.656;21.218;2023-08-12T04:41:22;101549.27;;;15.10;100.00
49455;BME280;69710;64.656;21.218;2023-08-12T04:43:50;101549.44;;;15.02;100.00
49455;BME280;69710;64.656;21.218;2023-08-12T04:46:18;101546.32;;;14.41;100.00
49455;BME280;69710;64.656;21.218;2023-08-12T04:48:46;101549.11;;;15.04;100.00
49455;BME280;69710;64.656;21.218;2023-08-12T04:51:14;101549.45;;;14.99;100.00
49455;BME280;69710;64.656;21.218;2023-08-12T04:53:41;101549.68;;;14.86;100.00
49455;BME280;69710;64.656;21.218;2023-08-12T04:56:09;101547.07;;;15.02;100.00
49455;BME280;69710;64.656;21.218;2023-08-12T04:58:36;101540.34;;;15.75;100.00
49455;BME280;69710;64.656;21.218;2023-08-12T05:01:03;101541.83;;;15.05;100.00
49455;BME280;69710;64.656;21.218;2023-08-12T05:03:31;101544.15;;;15.71;100.00
49455;BME280;69710;64.656;21.218;2023-08-12T05:05:59;101550.39;;;15.43;100.00
49455;BME280;69710;64.656;21.218;2023-08-12T05:08:28;101550.82;;;15.67;100.00
49455;BME280;69710;64.656;21.218;2023-08-12T05:10:55;101546.96;;;15.73;100.00
49455;BME280;69710;64.656;21.218;2023-08-12T05:13:23;101543.87;;;16.23;100.00
49455;BME280;69710;64.656;21.218;2023-08-12T05:15:51;101543.18;;;15.30;100.00
49455;BME280;69710;64.656;21.218;2023-08-12T05:18:19;101537.38;;;16.01;100.00
49455;BME280;69710;64.656;21.218;2023-08-12T05:20:47;101532.25;;;15.99;100.00
49455;BME280;69710;64.656;21.218;2023-08-12T05:23:15;101529.18;;;15.97;100.00
49455;BME280;69710;64.656;21.218;2023-08-12T05:25:43;101528.72;;;16.59;100.00
49455;BME280;69710;64.656;21.218;2023-08-12T05:28:11;101524.80;;;16.80;100.00
49455;BME280;69710;64.656;21.218;2023-08-12T05:30:39;101527.07;;;18.65;100.00
49455;BME280;69710;64.656;21.218;2023-08-12T05:33:07;101525.13;;;18.21;100.00
49455;BME280;69710;64.656;21.218;2023-08-12T05:35:35;101522.55;;;18.67;100.00
49455;BME280;69710;64.656;21.218;2023-08-12T05:38:03;101523.46;;;19.17;100.00
49455;BME280;69710;64.656;21.218;2023-08-12T05:40:31;101525.58;;;19.23;100.00
49455;BME280;69710;64.656;21.218;2023-08-12T05:42:59;101516.66;;;17.98;100.00
49455;BME280;69710;64.656;21.218;2023-08-12T05:45:27;101517.97;;;17.10;100.00
49455;BME280;69710;64.656;21.218;2023-08-12T05:47:55;101516.38;;;17.02;100.00
49455;BME280;69710;64.656;21.218;2023-08-12T05:50:23;101515.80;;;17.30;100.00
49455;BME280;69710;64.656;21.218;2023-08-12T05:52:51;101515.79;;;16.41;100.00
49455;BME280;69710;64.656;21.218;2023-08-12T05:55:20;101512.34;;;17.30;100.00
49455;BME280;69710;64.656;21.218;2023-08-12T05:57:48;101516.66;;;16.40;100.00
49455;BME280;69710;64.656;21.218;2023-08-12T06:00:16;101519.80;;;16.73;100.00
49455;BME280;69710;64.656;21.218;2023-08-12T06:02:44;101519.35;;;16.68;100.00
49455;BME280;69710;64.656;21.218;2023-08-12T06:05:12;101518.91;;;16.85;100.00
